Time;durP1;ratioP1;P1;durP2;ratioP2;P2;SDS_P1;SDS_P2;PMS_P1;PMS_P2;Temp;Humidity;BMP_temperature;BMP_pressure;BME280_temperature;BME280_humidity;BME280_pressure;Samples;Min_cycle;Max_cycle;Signal;HPM_P1;HPM_P2
2021/04/16 00:00:53;;;;;;;3.20;1.63;;;4.00;99.90;;;;;;5013808;28;20733;-68
2021/04/16 00:03:21;;;;;;;2.55;1.92;;;4.10;99.90;;;;;;5013036;28;20201;-69
2021/04/16 00:05:49;;;;;;;2.75;1.67;;;4.00;99.90;;;;;;5012893;28;20269;-69
2021/04/16 00:08:18;;;;;;;2.13;1.92;;;4.00;99.90;;;;;;5013283;28;20260;-70
2021/04/16 00:10:48;;;;;;;2.65;1.70;;;4.00;99.90;;;;;;5011986;28;20351;-68
2021/04/16 00:13:18;;;;;;;2.80;1.52;;;4.00;99.90;;;;;;5013314;28;20208;-69
2021/04/16 00:15:46;;;;;;;1.95;1.70;;;4.10;99.90;;;;;;5013686;28;20175;-69
2021/04/16 00:18:17;;;;;;;1.92;1.00;;;4.10;99.90;;;;;;5029939;22;20220;-65
2021/04/16 00:20:44;;;;;;;3.08;1.38;;;4.10;99.90;;;;;;5038872;28;20207;-65
2021/04/16 00:23:12;;;;;;;2.65;1.08;;;4.10;99.90;;;;;;5031624;28;20189;-66
2021/04/16 00:25:39;;;;;;;1.60;1.27;;;4.00;99.90;;;;;;5031556;28;20184;-66
2021/04/16 00:28:08;;;;;;;2.80;1.63;;;4.10;99.90;;;;;;5031358;28;20209;-65
2021/04/16 00:30:42;;;;;;;2.42;1.40;;;4.10;99.90;;;;;;5013715;28;20677;-65
2021/04/16 00:33:10;;;;;;;1.52;1.23;;;4.10;99.90;;;;;;5031535;28;20712;-65
2021/04/16 00:35:38;;;;;;;1.75;1.02;;;4.10;99.90;;;;;;5031385;28;20190;-66
2021/04/16 00:38:06;;;;;;;1.63;1.00;;;4.20;99.90;;;;;;4999213;28;20774;-66
2021/04/16 00:40:37;;;;;;;2.83;1.58;;;4.20;99.90;;;;;;5011736;28;20217;-65
2021/04/16 00:43:05;;;;;;;1.95;1.50;;;4.30;99.90;;;;;;5011847;28;20699;-66
2021/04/16 00:45:34;;;;;;;6.82;1.17;;;4.20;99.90;;;;;;5012193;28;20188;-65
2021/04/16 00:48:05;;;;;;;1.33;1.23;;;4.20;99.90;;;;;;5012487;28;20206;-66
2021/04/16 00:50:38;;;;;;;6.03;1.80;;;4.20;99.90;;;;;;5012072;28;20236;-65
2021/04/16 00:53:06;;;;;;;2.50;1.17;;;4.20;99.90;;;;;;5012015;28;20174;-66
2021/04/16 00:55:33;;;;;;;1.00;0.75;;;4.30;99.90;;;;;;5011915;28;20670;-66
2021/04/16 00:58:01;;;;;;;1.30;0.90;;;4.30;99.90;;;;;;5012056;28;20206;-66
2021/04/16 01:00:28;;;;;;;1.13;0.70;;;4.30;99.90;;;;;;5012235;28;20217;-66
2021/04/16 01:02:55;;;;;;;3.92;0.90;;;4.30;99.90;;;;;;5011905;28;20179;-66
2021/04/16 01:05:24;;;;;;;1.10;0.90;;;4.20;99.90;;;;;;5011844;28;20561;-66
2021/04/16 01:07:52;;;;;;;3.40;0.95;;;4.20;99.90;;;;;;5011954;28;20325;-66
2021/04/16 01:10:20;;;;;;;1.58;1.00;;;4.20;99.90;;;;;;5012039;28;20360;-66
2021/04/16 01:12:47;;;;;;;2.10;1.40;;;4.20;99.90;;;;;;5011867;28;20266;-66
2021/04/16 01:15:25;;;;;;;2.65;1.25;;;4.30;99.90;;;;;;5011979;28;20186;-66
2021/04/16 01:17:53;;;;;;;2.47;1.50;;;4.40;99.90;;;;;;4993989;28;20338;-67
2021/04/16 01:20:23;;;;;;;1.42;1.05;;;4.40;99.90;;;;;;5011528;28;20309;-65
2021/04/16 01:22:58;;;;;;;1.33;0.90;;;4.30;99.90;;;;;;4993950;28;20198;-66
2021/04/16 01:25:27;;;;;;;2.63;0.82;;;4.30;99.90;;;;;;5011591;28;20665;-66
2021/04/16 01:27:54;;;;;;;1.13;0.70;;;4.30;99.90;;;;;;5011294;28;20229;-66
2021/04/16 01:30:25;;;;;;;1.30;1.02;;;4.30;99.90;;;;;;5011312;28;20335;-66
2021/04/16 01:32:52;;;;;;;1.77;1.15;;;4.30;99.90;;;;;;4996189;28;20209;-66
2021/04/16 01:35:24;;;;;;;1.02;0.80;;;4.40;99.90;;;;;;5014888;28;20277;-66
2021/04/16 01:37:51;;;;;;;0.90;0.75;;;4.40;99.90;;;;;;4997163;28;20224;-66
2021/04/16 01:40:20;;;;;;;4.93;1.20;;;4.40;99.90;;;;;;5014720;28;20212;-66
2021/04/16 01:42:48;;;;;;;1.10;0.70;;;4.30;99.90;;;;;;5014596;28;20193;-66
2021/04/16 01:45:20;;;;;;;4.82;1.35;;;4.30;99.90;;;;;;5014688;28;20174;-66
2021/04/16 01:47:55;;;;;;;2.55;1.48;;;4.30;99.90;;;;;;5014451;28;20205;-65
2021/04/16 01:50:24;;;;;;;4.90;1.25;;;4.30;99.90;;;;;;5014538;28;20175;-66
2021/04/16 01:52:51;;;;;;;1.40;0.80;;;4.30;99.90;;;;;;5014617;28;20201;-65
2021/04/16 01:55:19;;;;;;;1.88;1.27;;;4.30;99.90;;;;;;4997312;28;20663;-66
2021/04/16 01:57:48;;;;;;;1.33;0.90;;;4.30;99.90;;;;;;5014932;28;20202;-66
2021/04/16 02:00:17;;;;;;;3.15;1.05;;;4.30;99.90;;;;;;5014906;28;20202;-66
2021/04/16 02:02:44;;;;;;;1.33;1.13;;;4.40;99.90;;;;;;5014922;28;20175;-66
2021/04/16 02:05:13;;;;;;;2.22;0.93;;;4.50;99.90;;;;;;5015016;28;20241;-66
2021/04/16 02:07:40;;;;;;;1.10;0.80;;;4.40;99.90;;;;;;5014643;28;20217;-66
2021/04/16 02:10:10;;;;;;;1.38;0.93;;;4.50;99.90;;;;;;5014177;28;20588;-66
2021/04/16 02:12:38;;;;;;;1.30;1.05;;;4.50;99.90;;;;;;5014466;28;20181;-66
2021/04/16 02:15:08;;;;;;;3.05;1.33;;;4.50;99.90;;;;;;5014411;28;20674;-64
2021/04/16 02:17:36;;;;;;;4.85;1.45;;;4.50;99.90;;;;;;5014166;28;20218;-65
2021/04/16 02:20:09;;;;;;;1.40;0.98;;;4.50;99.90;;;;;;5014031;28;20666;-65
2021/04/16 02:22:37;;;;;;;3.70;1.50;;;4.50;99.90;;;;;;4996530;28;20194;-65
2021/04/16 02:25:06;;;;;;;1.23;1.00;;;4.40;99.90;;;;;;5014365;28;20500;-65
2021/04/16 02:27:33;;;;;;;1.50;0.90;;;4.40;99.90;;;;;;4996737;28;20221;-64
2021/04/16 02:30:01;;;;;;;1.00;0.60;;;4.40;99.90;;;;;;5014136;28;20257;-65
2021/04/16 02:32:29;;;;;;;1.08;0.80;;;4.40;99.90;;;;;;5014414;28;20206;-65
2021/04/16 02:34:56;;;;;;;0.85;0.60;;;4.40;99.90;;;;;;5014699;28;20269;-66
2021/04/16 02:37:24;;;;;;;1.45;0.70;;;4.40;99.90;;;;;;5014392;28;20202;-67
2021/04/16 02:39:52;;;;;;;2.47;1.40;;;4.40;99.90;;;;;;5014136;28;20198;-67
2021/04/16 02:42:19;;;;;;;1.10;0.70;;;4.40;99.90;;;;;;5014600;28;20618;-65
2021/04/16 02:44:46;;;;;;;1.25;0.70;;;4.40;99.90;;;;;;5014971;28;20539;-66
2021/04/16 02:47:14;;;;;;;3.33;1.27;;;4.40;99.90;;;;;;5015355;28;20261;-67
2021/04/16 02:49:42;;;;;;;1.85;0.98;;;4.40;99.90;;;;;;5015344;28;20174;-66
2021/04/16 02:52:09;;;;;;;2.55;0.80;;;4.40;99.90;;;;;;5014399;28;20186;-66
2021/04/16 02:54:37;;;;;;;1.70;0.90;;;4.30;99.90;;;;;;5014156;28;20196;-66
2021/04/16 02:57:04;;;;;;;7.38;1.55;;;4.40;99.90;;;;;;5014360;28;20577;-65
2021/04/16 02:59:32;;;;;;;1.45;0.80;;;4.30;99.90;;;;;;5014092;28;20202;-65
2021/04/16 03:01:59;;;;;;;2.40;0.85;;;4.40;99.90;;;;;;5015041;28;20609;-66
2021/04/16 03:04:27;;;;;;;5.88;0.80;;;4.30;99.90;;;;;;5014935;28;20190;-65
2021/04/16 03:06:55;;;;;;;3.67;1.40;;;4.30;99.90;;;;;;5014422;28;20304;-65
2021/04/16 03:09:22;;;;;;;2.00;0.85;;;4.30;99.90;;;;;;5013878;28;20558;-66
2021/04/16 03:11:49;;;;;;;2.45;1.10;;;4.40;99.90;;;;;;5013795;28;20182;-67
2021/04/16 03:14:17;;;;;;;1.65;0.80;;;4.30;99.90;;;;;;5013524;28;20577;-66
2021/04/16 03:16:44;;;;;;;1.27;0.93;;;4.30;99.90;;;;;;5013189;28;20274;-66
2021/04/16 03:19:12;;;;;;;1.38;1.25;;;4.30;99.90;;;;;;5014803;28;20213;-66
2021/04/16 03:21:39;;;;;;;2.78;1.48;;;4.40;99.90;;;;;;5014597;28;20198;-66
2021/04/16 03:24:08;;;;;;;2.65;0.90;;;4.30;99.90;;;;;;5015869;28;20190;-66
2021/04/16 03:26:36;;;;;;;2.25;1.00;;;4.30;99.90;;;;;;5016935;28;20198;-66
2021/04/16 03:29:04;;;;;;;1.90;0.93;;;4.20;99.90;;;;;;5016369;28;20655;-66
2021/04/16 03:31:32;;;;;;;1.30;0.98;;;4.20;99.90;;;;;;5018202;28;20325;-67
2021/04/16 03:34:00;;;;;;;1.30;0.80;;;4.20;99.90;;;;;;5018360;28;20368;-66
2021/04/16 03:36:29;;;;;;;1.00;0.65;;;4.20;99.90;;;;;;5019454;28;20201;-66
2021/04/16 03:38:57;;;;;;;1.42;1.13;;;4.10;99.90;;;;;;5019155;28;20551;-66
2021/04/16 03:41:26;;;;;;;1.90;1.25;;;4.10;99.90;;;;;;4998801;28;20229;-66
2021/04/16 03:43:53;;;;;;;1.77;0.80;;;4.10;99.90;;;;;;5014488;28;20197;-66
2021/04/16 03:46:21;;;;;;;1.30;1.00;;;4.10;99.90;;;;;;5014470;28;20174;-66
2021/04/16 03:48:48;;;;;;;3.22;1.38;;;4.20;99.90;;;;;;5015294;28;20778;-67
2021/04/16 03:51:16;;;;;;;3.08;2.35;;;4.20;99.90;;;;;;5014221;28;20178;-66
2021/04/16 03:53:43;;;;;;;2.85;0.80;;;4.10;99.90;;;;;;5013392;28;20181;-65
2021/04/16 03:56:12;;;;;;;1.02;0.73;;;4.20;99.90;;;;;;4994609;28;20202;-66
2021/04/16 03:58:41;;;;;;;1.05;0.60;;;4.20;99.90;;;;;;5012803;28;20202;-66
2021/04/16 04:01:10;;;;;;;1.35;1.08;;;4.20;99.90;;;;;;5013108;28;20194;-66
2021/04/16 04:03:37;;;;;;;1.83;0.90;;;4.30;99.90;;;;;;5012615;28;20546;-66
2021/04/16 04:06:06;;;;;;;1.42;1.00;;;4.30;99.90;;;;;;5012194;28;20611;-66
2021/04/16 04:08:33;;;;;;;1.95;1.50;;;4.20;99.90;;;;;;5011808;28;20221;-66
2021/04/16 04:11:00;;;;;;;0.98;0.88;;;4.30;99.90;;;;;;5013050;28;20213;-65
2021/04/16 04:13:28;;;;;;;0.95;0.80;;;4.30;99.90;;;;;;5013076;28;20186;-65
2021/04/16 04:15:58;;;;;;;1.05;0.73;;;4.20;99.90;;;;;;5012931;28;20201;-66
2021/04/16 04:18:30;;;;;;;1.40;1.02;;;4.20;99.90;;;;;;5013130;28;20213;-66
2021/04/16 04:20:59;;;;;;;1.83;1.10;;;4.20;99.90;;;;;;5012808;28;20288;-66
2021/04/16 04:23:27;;;;;;;0.90;0.73;;;4.30;99.90;;;;;;4993864;28;20233;-66
2021/04/16 04:25:56;;;;;;;1.45;1.35;;;4.30;99.90;;;;;;4995049;28;20186;-66
2021/04/16 04:28:24;;;;;;;1.38;0.85;;;4.40;99.90;;;;;;4995221;28;20593;-65
2021/04/16 04:30:51;;;;;;;1.27;0.80;;;4.40;99.90;;;;;;4994349;28;20183;-66
2021/04/16 04:33:19;;;;;;;1.95;1.40;;;4.30;99.90;;;;;;4993875;28;20290;-66
2021/04/16 04:35:47;;;;;;;1.20;0.95;;;4.40;99.90;;;;;;5011506;28;20236;-66
2021/04/16 04:38:14;;;;;;;6.70;2.17;;;4.40;99.90;;;;;;5011047;28;20210;-66
2021/04/16 04:40:41;;;;;;;3.85;2.10;;;4.40;99.90;;;;;;5011107;28;20213;-66
2021/04/16 04:43:08;;;;;;;1.90;0.90;;;4.40;99.90;;;;;;5011359;28;20178;-66
2021/04/16 04:45:36;;;;;;;1.02;0.93;;;4.40;99.90;;;;;;4993463;28;20182;-66
2021/04/16 04:48:03;;;;;;;1.67;1.00;;;4.40;99.90;;;;;;5011406;28;20622;-66
2021/04/16 04:50:32;;;;;;;1.55;1.00;;;4.40;99.90;;;;;;5011289;28;20186;-65
2021/04/16 04:52:59;;;;;;;1.30;0.90;;;4.40;99.90;;;;;;5011597;28;20194;-67
2021/04/16 04:55:29;;;;;;;5.82;1.70;;;4.40;99.90;;;;;;5011304;28;20614;-65
2021/04/16 04:57:58;;;;;;;1.30;0.70;;;4.40;99.90;;;;;;4993266;28;20226;-65
2021/04/16 05:00:27;;;;;;;1.20;1.05;;;4.40;99.90;;;;;;5011417;28;20208;-65
2021/04/16 05:02:54;;;;;;;1.40;1.00;;;4.40;99.90;;;;;;4993548;28;20697;-65
2021/04/16 05:05:23;;;;;;;2.88;1.23;;;4.40;99.90;;;;;;5011145;28;20194;-66
2021/04/16 05:07:51;;;;;;;2.30;0.90;;;4.30;99.90;;;;;;5010542;28;20215;-66
2021/04/16 05:10:19;;;;;;;1.77;1.02;;;4.40;99.90;;;;;;5011173;28;20265;-66
2021/04/16 05:12:47;;;;;;;3.95;1.50;;;4.40;99.90;;;;;;5011114;28;20541;-65
2021/04/16 05:15:16;;;;;;;0.90;0.70;;;4.40;99.90;;;;;;5010853;28;20232;-66
2021/04/16 05:17:43;;;;;;;3.30;1.20;;;4.30;99.90;;;;;;5010949;28;20233;-65
2021/04/16 05:20:12;;;;;;;1.60;0.80;;;4.40;99.90;;;;;;5011808;28;20268;-65
2021/04/16 05:22:39;;;;;;;1.88;0.93;;;4.40;99.90;;;;;;4993381;28;20194;-66
2021/04/16 05:25:09;;;;;;;6.07;1.20;;;4.40;99.90;;;;;;5012107;28;20171;-66
2021/04/16 05:27:37;;;;;;;2.05;1.05;;;4.40;99.90;;;;;;5012072;28;20206;-66
2021/04/16 05:30:06;;;;;;;3.45;1.23;;;4.40;99.90;;;;;;5011379;28;20190;-66
2021/04/16 05:32:33;;;;;;;1.38;1.17;;;4.40;99.90;;;;;;5011108;28;20686;-66
2021/04/16 05:35:00;;;;;;;3.83;1.45;;;4.50;99.90;;;;;;5011296;28;20174;-66
2021/04/16 05:37:27;;;;;;;5.32;1.17;;;4.60;99.90;;;;;;5012135;28;20209;-66
2021/04/16 05:39:54;;;;;;;1.83;1.20;;;4.60;99.90;;;;;;5011107;28;20194;-68
2021/04/16 05:42:22;;;;;;;4.55;1.05;;;4.70;99.90;;;;;;5011459;28;20185;-66
2021/04/16 05:44:49;;;;;;;3.83;1.23;;;4.80;99.90;;;;;;5011104;28;20233;-66
2021/04/16 05:47:17;;;;;;;1.15;0.82;;;4.90;99.90;;;;;;4993506;28;20300;-66
2021/04/16 05:49:44;;;;;;;2.17;0.80;;;4.90;99.90;;;;;;5011496;28;20186;-66
2021/04/16 05:52:11;;;;;;;2.13;0.90;;;4.90;99.90;;;;;;5010712;28;20261;-66
2021/04/16 05:54:38;;;;;;;1.75;0.93;;;5.00;99.90;;;;;;5010800;28;20186;-66
2021/04/16 05:57:07;;;;;;;2.95;1.42;;;5.00;99.90;;;;;;5011121;28;20213;-66
2021/04/16 05:59:35;;;;;;;2.55;0.90;;;4.90;99.90;;;;;;5009605;28;20273;-65
2021/04/16 06:02:02;;;;;;;7.28;1.50;;;4.90;99.90;;;;;;5010938;28;20194;-66
2021/04/16 06:04:30;;;;;;;6.05;1.40;;;4.90;99.90;;;;;;5009385;28;20257;-66
2021/04/16 06:07:17;;;;;;;1.73;1.33;;;5.00;99.90;;;;;;5011270;28;20296;-66
2021/04/16 06:09:44;;;;;;;1.20;1.00;;;5.00;99.90;;;;;;5011132;28;20182;-66
2021/04/16 06:12:12;;;;;;;4.60;1.10;;;5.10;99.90;;;;;;5010848;28;20187;-66
2021/04/16 06:14:42;;;;;;;1.75;1.25;;;5.10;99.90;;;;;;5011115;28;20179;-66
2021/04/16 06:17:10;;;;;;;2.17;1.38;;;5.30;99.90;;;;;;5010965;28;20313;-66
2021/04/16 06:22:40;;;;;;;8.98;2.40;;;5.20;99.90;;;;;;5058855;23;20220;-65
2021/04/16 06:25:10;;;;;;;3.00;1.60;;;5.30;99.90;;;;;;5055443;28;20195;-65
2021/04/16 06:27:37;;;;;;;2.33;2.13;;;5.30;99.90;;;;;;5055471;28;20235;-65
2021/04/16 06:30:07;;;;;;;2.35;1.70;;;5.20;99.90;;;;;;5055723;28;20637;-65
2021/04/16 06:32:34;;;;;;;3.72;2.78;;;5.20;99.90;;;;;;5055708;28;20181;-65
2021/04/16 06:35:02;;;;;;;2.90;2.30;;;5.30;99.90;;;;;;5055467;28;20621;-65
2021/04/16 06:37:29;;;;;;;7.18;6.47;;;5.20;99.90;;;;;;5055925;28;20216;-65
2021/04/16 06:39:56;;;;;;;1.70;1.45;;;5.40;99.90;;;;;;5055333;28;20204;-65
2021/04/16 06:42:26;;;;;;;44.70;29.33;;;5.50;99.90;;;;;;5055284;28;20172;-64
2021/04/16 06:44:57;;;;;;;8.98;7.07;;;5.60;99.90;;;;;;5055385;28;20255;-64
2021/04/16 06:47:32;;;;;;;8.27;7.30;;;6.00;99.90;;;;;;5055131;28;20208;-64
2021/04/16 06:50:00;;;;;;;10.98;3.42;;;5.90;99.90;;;;;;5055392;28;20271;-65
2021/04/16 06:52:31;;;;;;;3.75;2.83;;;5.90;99.90;;;;;;5037153;28;20250;-66
2021/04/16 06:55:03;;;;;;;10.38;9.50;;;5.90;99.90;;;;;;5054890;28;20185;-65
2021/04/16 06:57:38;;;;;;;7.72;6.65;;;6.00;99.90;;;;;;5054947;28;20231;-65
2021/04/16 07:00:15;;;;;;;10.93;4.40;;;6.00;99.90;;;;;;5036933;28;20290;-65
2021/04/16 07:02:55;;;;;;;7.45;4.65;;;5.90;99.90;;;;;;5037312;28;20188;-65
2021/04/16 07:05:33;;;;;;;2.63;2.08;;;5.90;99.90;;;;;;5054727;28;20180;-65
2021/04/16 07:08:01;;;;;;;5.43;2.80;;;5.80;99.90;;;;;;5057131;28;20303;-64
2021/04/16 07:10:30;;;;;;;6.15;4.80;;;5.70;99.90;;;;;;5037570;28;20204;-64
2021/04/16 07:12:59;;;;;;;2.30;2.10;;;5.90;99.90;;;;;;5054450;28;20181;-65
2021/04/16 07:15:36;;;;;;;3.75;1.10;;;6.00;99.90;;;;;;5054320;28;20662;-65
2021/04/16 07:18:05;;;;;;;1.30;0.90;;;6.00;99.90;;;;;;5054452;28;20209;-65
2021/04/16 07:20:34;;;;;;;1.80;1.08;;;6.00;99.90;;;;;;5054120;28;20421;-66
2021/04/16 07:23:02;;;;;;;2.15;1.70;;;6.00;99.90;;;;;;5054356;28;20181;-65
2021/04/16 07:25:35;;;;;;;3.05;1.70;;;5.80;99.90;;;;;;5054464;28;20644;-65
2021/04/16 07:28:05;;;;;;;2.00;1.40;;;6.00;99.90;;;;;;5054459;28;20274;-64
2021/04/16 07:30:40;;;;;;;4.20;1.80;;;5.90;99.90;;;;;;5053910;28;20169;-65
2021/04/16 07:33:27;;;;;;;1.95;1.58;;;6.10;99.90;;;;;;5054182;28;20176;-64
2021/04/16 07:36:21;;;;;;;4.25;1.63;;;6.10;99.90;;;;;;5036193;28;20220;-65
2021/04/16 07:38:58;;;;;;;2.63;2.42;;;6.30;99.90;;;;;;5053823;28;20697;-65
2021/04/16 07:41:27;;;;;;;4.85;4.43;;;6.50;99.90;;;;;;5053759;28;20188;-65
2021/04/16 07:43:57;;;;;;;5.68;2.17;;;6.50;99.90;;;;;;5053936;28;20189;-65
2021/04/16 07:46:40;;;;;;;2.75;1.60;;;6.60;99.90;;;;;;5054731;28;20181;-65
2021/04/16 07:49:23;;;;;;;2.20;1.10;;;6.90;99.90;;;;;;5053772;28;20173;-64
2021/04/16 07:51:55;;;;;;;13.27;2.00;;;6.80;99.90;;;;;;5053723;28;20184;-67
2021/04/16 07:54:27;;;;;;;2.60;1.70;;;7.00;99.90;;;;;;5053795;28;20184;-65
2021/04/16 07:57:09;;;;;;;4.80;0.85;;;7.20;99.90;;;;;;5053390;28;20217;-67
2021/04/16 07:59:59;;;;;;;1.77;1.00;;;7.10;99.90;;;;;;5053693;28;20181;-66
2021/04/16 08:02:30;;;;;;;4.25;1.38;;;7.00;99.90;;;;;;5053424;28;20181;-65
2021/04/16 08:04:59;;;;;;;3.95;0.90;;;7.10;99.90;;;;;;5053159;28;20634;-66
2021/04/16 08:07:31;;;;;;;1.50;0.95;;;7.00;99.90;;;;;;5053249;28;20283;-66
2021/04/16 08:09:59;;;;;;;1.85;1.00;;;6.90;99.90;;;;;;5054109;28;20177;-69
2021/04/16 08:12:28;;;;;;;1.90;1.17;;;7.00;99.90;;;;;;5036047;28;20291;-66
2021/04/16 08:15:17;;;;;;;0.90;0.60;;;6.80;99.90;;;;;;5053098;28;20239;-66
2021/04/16 08:17:45;;;;;;;1.30;1.10;;;6.80;99.90;;;;;;5035375;28;20227;-65
2021/04/16 08:20:30;;;;;;;1.20;0.90;;;6.90;99.90;;;;;;5052833;28;20687;-67
2021/04/16 08:23:16;;;;;;;2.63;0.90;;;6.90;99.90;;;;;;5053274;28;20200;-66
2021/04/16 08:25:46;;;;;;;1.10;0.95;;;7.20;99.90;;;;;;5052961;28;20320;-66
2021/04/16 08:28:18;;;;;;;2.45;1.27;;;7.50;99.90;;;;;;5052786;28;20216;-65
2021/04/16 08:30:52;;;;;;;2.78;1.20;;;7.40;99.90;;;;;;5053005;28;20181;-68
2021/04/16 08:33:29;;;;;;;3.83;1.15;;;7.40;99.90;;;;;;5052930;28;20539;-65
2021/04/16 08:36:05;;;;;;;2.08;1.90;;;7.50;99.90;;;;;;5052810;28;20185;-66
2021/04/16 08:38:36;;;;;;;1.15;0.77;;;7.50;99.90;;;;;;5053002;28;20215;-64
2021/04/16 08:41:05;;;;;;;3.58;1.33;;;7.60;99.90;;;;;;5052219;28;20676;-65
2021/04/16 08:43:36;;;;;;;2.30;1.00;;;7.90;99.90;;;;;;5052511;28;20183;-65
2021/04/16 08:46:21;;;;;;;3.08;1.33;;;7.80;99.90;;;;;;5052696;28;20185;-65
2021/04/16 08:48:54;;;;;;;6.95;1.15;;;7.90;99.90;;;;;;5052344;28;20266;-65
2021/04/16 08:51:27;;;;;;;1.25;1.00;;;7.90;99.90;;;;;;5052725;28;20180;-65
2021/04/16 08:54:03;;;;;;;3.47;1.40;;;7.80;99.90;;;;;;5052485;28;20271;-65
2021/04/16 08:56:35;;;;;;;1.42;1.30;;;8.00;99.90;;;;;;5052137;28;20184;-66
2021/04/16 08:59:12;;;;;;;3.38;0.80;;;8.20;99.90;;;;;;5052311;28;20608;-65
2021/04/16 09:01:50;;;;;;;3.83;1.42;;;8.20;99.90;;;;;;5052177;28;20201;-63
2021/04/16 09:04:24;;;;;;;1.98;1.17;;;8.30;99.90;;;;;;5034458;28;20192;-64
2021/04/16 09:06:56;;;;;;;1.10;1.00;;;8.10;99.90;;;;;;5052271;28;20173;-65
2021/04/16 09:09:47;;;;;;;3.20;1.45;;;8.30;99.90;;;;;;5052147;28;20180;-66
2021/04/16 09:12:48;;;;;;;4.32;0.85;;;8.30;99.90;;;;;;5052427;28;20181;-66
2021/04/16 09:15:40;;;;;;;1.20;0.90;;;8.30;99.90;;;;;;5052390;28;20184;-65
2021/04/16 09:18:28;;;;;;;2.42;1.13;;;8.30;99.90;;;;;;5051997;28;20205;-65
2021/04/16 09:21:24;;;;;;;10.32;7.35;;;8.20;99.90;;;;;;5052098;28;20220;-66
2021/04/16 09:24:10;;;;;;;8.77;6.53;;;8.00;99.90;;;;;;5052262;28;20230;-65
2021/04/16 09:26:56;;;;;;;9.93;7.07;;;8.10;99.90;;;;;;5052280;28;20185;-67
2021/04/16 09:29:45;;;;;;;5.95;4.05;;;8.20;99.90;;;;;;5052372;28;20181;-65
2021/04/16 09:32:47;;;;;;;1.30;1.20;;;8.50;99.90;;;;;;5046674;28;20228;-66
2021/04/16 09:35:45;;;;;;;2.05;1.35;;;8.70;99.90;;;;;;5052055;28;20235;-67
2021/04/16 09:38:37;;;;;;;1.58;1.20;;;8.70;99.90;;;;;;5051704;28;20291;-65
2021/04/16 09:41:32;;;;;;;2.78;2.30;;;9.10;99.90;;;;;;5051884;28;20212;-65
2021/04/16 09:44:20;;;;;;;2.03;1.10;;;9.30;99.90;;;;;;5051933;28;20277;-66
2021/04/16 09:46:49;;;;;;;1.88;1.02;;;9.20;99.90;;;;;;5051794;28;20247;-66
2021/04/16 09:49:32;;;;;;;3.08;1.90;;;9.10;99.90;;;;;;5052381;28;20173;-65
2021/04/16 09:52:20;;;;;;;1.38;1.00;;;8.90;99.90;;;;;;5051889;28;20179;-64
2021/04/16 09:54:48;;;;;;;2.78;2.05;;;9.10;99.90;;;;;;5055308;28;20220;-67
2021/04/16 09:57:41;;;;;;;1.55;1.30;;;9.30;99.90;;;;;;5055556;28;20209;-67
2021/04/16 10:00:40;;;;;;;4.15;2.50;;;9.30;99.90;;;;;;5055966;28;20197;-65
2021/04/16 10:03:24;;;;;;;2.75;1.98;;;9.00;99.90;;;;;;5055709;28;20188;-65
2021/04/16 10:05:52;;;;;;;4.35;2.58;;;9.10;99.90;;;;;;5055899;28;20668;-66
2021/04/16 10:08:26;;;;;;;7.18;4.50;;;9.40;99.90;;;;;;5055218;28;20286;-66
2021/04/16 10:11:01;;;;;;;8.10;4.82;;;9.20;99.90;;;;;;5055605;28;20184;-65
2021/04/16 10:13:30;;;;;;;5.82;3.67;;;9.30;99.90;;;;;;5055371;28;20263;-65
2021/04/16 10:16:00;;;;;;;8.88;4.13;;;9.30;99.90;;;;;;5055571;28;20658;-66
2021/04/16 10:18:33;;;;;;;5.22;2.15;;;9.60;99.90;;;;;;5055621;28;20205;-66
2021/04/16 10:21:08;;;;;;;2.08;1.35;;;9.90;99.90;;;;;;5054622;28;20208;-66
2021/04/16 10:23:39;;;;;;;4.57;2.88;;;9.80;99.90;;;;;;5054569;28;20188;-65
2021/04/16 12:40:24;;;;;;;7.43;4.80;;;11.90;99.90;;;;;;5071899;28;20501;-68
2021/04/16 12:42:51;;;;;;;2.80;2.33;;;11.70;99.90;;;;;;5071811;28;20443;-68
2021/04/16 12:45:20;;;;;;;2.70;1.80;;;12.00;99.90;;;;;;5071481;28;20429;-68
2021/04/16 12:47:47;;;;;;;2.03;1.80;;;12.00;99.90;;;;;;5071950;28;20438;-66
2021/04/16 12:50:18;;;;;;;2.80;1.53;;;12.20;99.90;;;;;;5072216;28;20483;-68
2021/04/16 12:52:45;;;;;;;6.27;1.90;;;11.90;99.90;;;;;;5072122;28;20438;-67
2021/04/16 12:55:14;;;;;;;3.00;1.58;;;11.60;99.90;;;;;;5072640;28;20414;-66
2021/04/16 12:57:44;;;;;;;2.75;2.13;;;11.40;99.90;;;;;;5054470;28;20216;-67
2021/04/16 13:00:15;;;;;;;4.93;1.27;;;11.40;99.90;;;;;;5071685;28;20184;-67
2021/04/16 13:02:42;;;;;;;5.47;3.40;;;11.40;99.90;;;;;;5072381;28;20454;-67
2021/04/16 13:05:13;;;;;;;4.40;2.10;;;11.40;99.90;;;;;;5071714;28;20442;-66
2021/04/16 13:07:42;;;;;;;3.33;1.47;;;11.60;99.90;;;;;;5071510;28;20984;-69
2021/04/16 13:10:11;;;;;;;1.57;0.90;;;12.00;99.90;;;;;;5072117;28;20852;-66
2021/04/16 13:12:38;;;;;;;2.17;0.97;;;12.00;99.90;;;;;;5073283;28;20392;-67
2021/04/16 13:15:07;;;;;;;2.20;1.53;;;12.00;99.90;;;;;;5073173;28;20468;-66
2021/04/16 13:17:36;;;;;;;1.80;1.07;;;12.00;99.90;;;;;;5074292;28;20448;-68
2021/04/16 13:20:05;;;;;;;2.53;2.33;;;12.00;99.90;;;;;;5073027;28;20446;-67
2021/04/16 13:22:32;;;;;;;1.40;0.83;;;11.70;99.90;;;;;;5057104;28;20471;-65
2021/04/16 13:25:00;;;;;;;1.23;0.90;;;11.70;99.90;;;;;;5072130;28;20414;-67
2021/04/16 13:27:29;;;;;;;1.87;1.57;;;11.80;99.90;;;;;;5071944;28;20445;-66
2021/04/16 13:29:57;;;;;;;3.17;1.43;;;12.00;99.90;;;;;;5057572;28;20426;-67
2021/04/16 13:32:29;;;;;;;3.03;1.20;;;12.00;99.90;;;;;;5075659;28;20407;-66
2021/04/16 13:34:58;;;;;;;0.97;0.80;;;12.00;99.90;;;;;;5075401;28;20400;-66
2021/04/16 13:37:29;;;;;;;1.43;0.70;;;11.90;99.90;;;;;;5075132;28;20464;-68
2021/04/16 13:39:56;;;;;;;3.83;1.40;;;11.60;99.90;;;;;;5075555;28;20414;-67
2021/04/16 13:42:25;;;;;;;2.80;1.07;;;11.70;99.90;;;;;;5066061;28;20497;-67
2021/04/16 13:44:52;;;;;;;5.33;1.50;;;11.70;99.90;;;;;;5056032;28;20401;-66
2021/04/16 13:47:24;;;;;;;2.23;1.27;;;11.70;99.90;;;;;;5054889;28;20418;-69
2021/04/16 13:49:55;;;;;;;4.40;1.20;;;11.60;99.90;;;;;;5055645;28;20382;-69
2021/04/16 13:52:22;;;;;;;1.67;0.80;;;11.70;99.90;;;;;;5055350;28;20425;-66
2021/04/16 13:54:50;;;;;;;1.77;1.60;;;11.80;99.90;;;;;;5054666;28;20431;-67
2021/04/16 13:57:18;;;;;;;1.53;0.93;;;12.00;99.90;;;;;;5055023;28;20427;-67
2021/04/16 13:59:47;;;;;;;2.03;1.00;;;11.80;99.90;;;;;;5054970;28;20417;-67
2021/04/16 14:02:17;;;;;;;3.90;1.03;;;11.80;99.90;;;;;;5036852;28;20771;-66
2021/04/16 14:04:47;;;;;;;1.63;1.13;;;11.90;99.90;;;;;;5054699;28;20411;-66
2021/04/16 14:07:15;;;;;;;3.27;1.53;;;12.10;99.90;;;;;;5054550;28;20544;-67
2021/04/16 14:09:43;;;;;;;2.13;1.20;;;12.20;99.90;;;;;;5054720;28;20432;-67
2021/04/16 14:12:12;;;;;;;2.33;1.00;;;11.70;99.90;;;;;;5054882;28;20423;-68
2021/04/16 14:14:39;;;;;;;2.57;1.30;;;11.70;99.90;;;;;;5054907;28;20439;-66
2021/04/16 14:17:11;;;;;;;2.70;1.37;;;11.90;99.90;;;;;;5055131;28;20799;-67
2021/04/16 14:19:44;;;;;;;1.93;1.27;;;12.00;99.90;;;;;;5054089;28;20416;-66
2021/04/16 14:22:13;;;;;;;2.50;1.50;;;12.00;99.90;;;;;;5054717;28;20470;-67
2021/04/16 14:24:41;;;;;;;1.87;0.80;;;12.00;99.90;;;;;;5054235;28;20473;-66
2021/04/16 14:27:09;;;;;;;4.90;1.90;;;12.20;99.90;;;;;;5054792;28;20681;-66
2021/04/16 14:29:36;;;;;;;1.97;1.10;;;12.50;99.90;;;;;;5054114;28;20433;-66
2021/04/16 14:32:06;;;;;;;1.80;1.10;;;12.40;99.90;;;;;;5054662;28;20427;-66
2021/04/16 14:34:35;;;;;;;0.90;0.70;;;12.40;99.90;;;;;;5054761;28;20410;-65
2021/04/16 14:37:03;;;;;;;1.00;0.83;;;12.20;99.90;;;;;;5054378;28;20418;-66
2021/04/16 14:39:30;;;;;;;1.30;0.87;;;11.80;99.90;;;;;;5035347;28;20516;-66
2021/04/16 14:41:59;;;;;;;2.23;1.13;;;11.80;99.90;;;;;;5054646;28;20437;-65
2021/04/16 14:44:27;;;;;;;10.23;1.00;;;11.70;99.90;;;;;;5055526;28;20407;-69
2021/04/16 14:46:55;;;;;;;2.63;1.47;;;11.70;99.90;;;;;;5055286;28;20822;-65
2021/04/16 14:49:27;;;;;;;1.83;1.27;;;11.70;99.90;;;;;;5056036;28;20415;-68
2021/04/16 14:51:56;;;;;;;1.47;0.90;;;11.90;99.90;;;;;;5057371;28;20419;-68
2021/04/16 14:54:27;;;;;;;1.20;0.80;;;12.20;99.90;;;;;;5056199;28;20370;-68
2021/04/16 14:56:55;;;;;;;2.13;1.20;;;12.50;99.90;;;;;;5054929;28;20417;-65
2021/04/16 14:59:28;;;;;;;1.40;1.20;;;12.50;99.90;;;;;;5057741;28;20389;-66
2021/04/16 15:01:56;;;;;;;1.60;1.17;;;12.50;99.90;;;;;;5056818;28;20451;-66
2021/04/16 15:04:24;;;;;;;1.50;1.13;;;12.40;99.90;;;;;;5056381;28;20548;-67
2021/04/16 15:06:56;;;;;;;6.60;3.90;;;12.30;99.90;;;;;;5055009;28;20434;-67
2021/04/16 15:09:24;;;;;;;1.60;1.50;;;12.30;99.90;;;;;;5036137;28;20426;-68
2021/04/16 15:11:54;;;;;;;3.03;1.47;;;12.00;99.90;;;;;;5056820;28;20910;-66
2021/04/16 15:14:26;;;;;;;1.90;1.10;;;11.80;99.90;;;;;;5056058;28;20410;-68
2021/04/16 15:16:55;;;;;;;4.17;1.43;;;11.70;99.90;;;;;;5055738;28;20402;-67
2021/04/16 15:19:29;;;;;;;1.13;0.73;;;11.60;99.90;;;;;;5054645;28;20393;-65
2021/04/16 15:22:00;;;;;;;1.83;1.20;;;11.70;99.90;;;;;;5056016;28;20502;-67
2021/04/16 15:24:28;;;;;;;1.83;0.97;;;11.80;99.90;;;;;;5054452;28;20419;-66
2021/04/16 15:26:57;;;;;;;3.30;1.53;;;11.80;99.90;;;;;;5054680;28;20448;-67
2021/04/16 15:29:30;;;;;;;2.63;1.37;;;11.80;99.90;;;;;;5054828;28;20370;-68
2021/04/16 15:31:58;;;;;;;1.25;1.05;;;11.30;99.90;;;;;;5055012;28;20745;-66